createdAt,value
2023-09-16T00:01:40.439Z,3.45
2023-09-16T00:04:07.590Z,3.92
2023-09-16T00:06:34.464Z,4.03
2023-09-16T00:09:01.465Z,3.50
2023-09-16T00:11:28.989Z,3.63
2023-09-16T00:13:55.871Z,3.92
2023-09-16T00:16:22.792Z,3.25
2023-09-16T00:18:49.825Z,3.78
2023-09-16T00:21:17.260Z,3.47
2023-09-16T00:23:44.058Z,3.80
2023-09-16T00:26:11.637Z,3.70
2023-09-16T00:28:38.474Z,2.90
2023-09-16T00:31:07.417Z,3.70
2023-09-16T00:33:34.607Z,3.63
2023-09-16T00:36:01.405Z,3.40
2023-09-16T00:38:28.138Z,2.85
2023-09-16T00:40:55.088Z,3.25
2023-09-16T00:43:21.797Z,3.33
2023-09-16T00:45:48.593Z,2.90
2023-09-16T00:48:16.823Z,3.00
2023-09-16T00:50:44.280Z,3.17
2023-09-16T00:53:12.193Z,3.53
2023-09-16T00:55:39.776Z,3.00
2023-09-16T00:58:07.839Z,4.30
2023-09-16T01:00:34.778Z,3.03
2023-09-16T01:03:02.934Z,3.00
2023-09-16T01:05:30.324Z,3.63
2023-09-16T01:07:57.774Z,3.67
2023-09-16T01:10:26.017Z,3.67
2023-09-16T01:12:54.603Z,3.70
2023-09-16T01:15:23.691Z,3.63
2023-09-16T01:17:58.972Z,3.30
2023-09-16T01:20:26.463Z,2.85
2023-09-16T01:22:53.179Z,3.28
2023-09-16T01:25:19.901Z,3.80
2023-09-16T01:27:46.592Z,3.15
2023-09-16T01:30:14.634Z,3.60
2023-09-16T01:32:53.736Z,3.35
2023-09-16T01:35:22.421Z,3.47
2023-09-16T01:37:51.010Z,3.60
2023-09-16T01:40:19.227Z,3.65
2023-09-16T01:42:46.056Z,3.65
2023-09-16T01:45:42.212Z,3.33
2023-09-16T01:48:09.334Z,3.78
2023-09-16T01:50:36.337Z,3.92
2023-09-16T01:53:03.755Z,4.07
2023-09-16T01:55:31.998Z,4.10
2023-09-16T01:57:59.239Z,3.80
2023-09-16T02:00:26.066Z,3.72
2023-09-16T02:02:53.059Z,3.85
2023-09-16T02:05:20.127Z,4.00
2023-09-16T02:07:47.339Z,3.92
2023-09-16T02:10:14.094Z,3.85
2023-09-16T02:12:42.724Z,4.05
2023-09-16T02:15:11.072Z,3.63
2023-09-16T02:17:40.392Z,3.22
2023-09-16T02:20:13.989Z,3.20
2023-09-16T02:22:42.324Z,4.72
2023-09-16T02:25:09.832Z,4.55
2023-09-16T02:27:36.843Z,3.67
2023-09-16T07:30:57.928Z,3.75
2023-09-16T07:33:24.913Z,3.50
2023-09-16T07:35:52.782Z,4.18
2023-09-16T07:38:19.668Z,4.45
2023-09-16T07:40:46.445Z,3.60
2023-09-16T07:43:13.472Z,4.10
2023-09-16T07:45:43.416Z,3.85
2023-09-16T07:48:11.169Z,3.95
2023-09-16T07:50:37.964Z,3.88
2023-09-16T07:53:04.779Z,3.53
2023-09-16T07:55:31.523Z,3.95
2023-09-16T07:57:58.491Z,3.88
2023-09-16T08:00:25.151Z,4.00
2023-09-16T08:02:52.001Z,3.58
2023-09-16T08:05:18.778Z,4.00
2023-09-16T08:07:45.617Z,4.43
2023-09-16T08:10:12.452Z,3.63
2023-09-16T08:12:39.151Z,3.33
2023-09-16T08:15:07.920Z,4.20
2023-09-16T08:17:35.057Z,4.18
2023-09-16T08:20:01.778Z,3.80
2023-09-16T08:22:30.305Z,3.50
2023-09-16T08:24:57.109Z,3.60
2023-09-16T08:27:24.224Z,4.07
2023-09-16T08:29:50.942Z,3.28
2023-09-16T08:32:17.711Z,3.35
2023-09-16T08:34:44.927Z,3.60
2023-09-16T08:37:14.735Z,3.60
2023-09-16T08:39:41.557Z,3.83
2023-09-16T08:42:17.040Z,3.28
2023-09-16T08:44:45.772Z,3.47
2023-09-16T08:47:17.119Z,3.20
2023-09-16T08:49:47.401Z,3.10
2023-09-16T08:54:43.048Z,3.10
2023-09-16T08:57:12.167Z,3.50
2023-09-16T08:59:40.286Z,2.92
2023-09-16T09:02:08.501Z,3.13
2023-09-16T09:04:35.782Z,3.28
2023-09-16T09:07:03.443Z,3.55
2023-09-16T09:09:30.296Z,3.00
2023-09-16T09:11:58.457Z,3.60
2023-09-16T09:14:25.151Z,3.10
2023-09-16T09:16:53.013Z,3.33
2023-09-16T09:19:20.851Z,3.33
2023-09-16T09:21:48.787Z,2.97
2023-09-16T09:24:15.522Z,2.88
2023-09-16T09:26:42.280Z,3.05
2023-09-16T09:29:13.252Z,3.00
2023-09-16T09:31:41.196Z,3.78
2023-09-16T09:34:20.471Z,2.63
2023-09-16T09:36:48.116Z,3.10
2023-09-16T09:39:15.176Z,3.25
2023-09-16T09:41:47.544Z,3.08
2023-09-16T09:44:14.974Z,2.65
2023-09-16T09:46:42.332Z,3.60
2023-09-16T09:49:11.929Z,3.55
2023-09-16T09:51:39.637Z,3.33
2023-09-16T09:54:08.114Z,3.03
2023-09-16T09:56:34.943Z,3.35
2023-09-16T09:59:01.918Z,2.35
2023-09-16T10:01:35.367Z,3.28
2023-09-16T10:04:05.903Z,2.88
2023-09-16T10:06:32.870Z,2.55
2023-09-16T10:08:59.564Z,2.65
2023-09-16T10:11:29.781Z,2.85
2023-09-16T10:13:56.798Z,3.20
2023-09-16T10:16:23.780Z,2.80
2023-09-16T10:18:51.183Z,3.40
2023-09-16T10:21:19.484Z,2.85
2023-09-16T10:23:47.550Z,3.08
2023-09-16T10:26:14.312Z,2.70
2023-09-16T10:28:45.830Z,2.67
2023-09-16T10:31:12.940Z,2.80
2023-09-16T10:33:42.764Z,2.40
2023-09-16T10:36:10.519Z,2.58
2023-09-16T10:38:38.394Z,2.70
2023-09-16T10:41:09.132Z,2.53
2023-09-16T10:43:36.081Z,2.75
2023-09-16T10:46:04.270Z,2.80
2023-09-16T10:48:31.096Z,2.78
2023-09-16T10:51:02.676Z,3.10
2023-09-16T10:53:37.798Z,2.60
2023-09-16T10:56:43.212Z,3.00
2023-09-16T10:59:16.926Z,2.25
2023-09-16T11:01:55.189Z,2.92
2023-09-16T11:04:22.244Z,2.40
2023-09-16T11:06:52.275Z,2.20
2023-09-16T11:09:21.372Z,2.35
2023-09-16T11:11:49.086Z,2.50
2023-09-16T11:14:16.600Z,3.00
2023-09-16T11:16:49.358Z,2.30
2023-09-16T11:19:17.307Z,2.05
2023-09-16T11:21:44.583Z,2.25
2023-09-16T11:24:13.000Z,2.40
2023-09-16T11:26:40.171Z,2.38
2023-09-16T11:29:20.434Z,2.03
2023-09-16T11:31:47.631Z,1.80
2023-09-16T11:34:17.829Z,2.10
2023-09-16T11:36:49.405Z,2.28
2023-09-16T11:39:17.129Z,2.47
2023-09-16T11:41:43.846Z,1.60
2023-09-16T11:44:10.981Z,2.58
2023-09-16T11:46:38.232Z,2.63
2023-09-16T11:49:07.026Z,2.08
2023-09-16T11:51:35.878Z,2.30
2023-09-16T11:54:03.375Z,2.08
2023-09-16T11:56:32.272Z,1.95
2023-09-16T11:58:59.610Z,2.45
2023-09-16T12:01:30.555Z,1.90
2023-09-16T12:03:58.680Z,2.55
2023-09-16T12:06:27.333Z,2.15
2023-09-16T12:08:55.824Z,2.22
2023-09-16T12:11:26.792Z,2.10
2023-09-16T12:13:55.759Z,2.15
2023-09-16T12:16:23.524Z,2.42
2023-09-16T12:18:50.756Z,2.15
2023-09-16T12:21:18.322Z,2.17
2023-09-16T12:23:46.852Z,1.98
2023-09-16T12:26:14.028Z,2.38
2023-09-16T12:28:41.522Z,1.95
2023-09-16T12:31:12.909Z,2.08
2023-09-16T12:33:40.456Z,2.95
2023-09-16T12:36:07.735Z,2.88
2023-09-16T12:38:35.625Z,2.20
2023-09-16T12:41:03.777Z,2.53
2023-09-16T12:43:37.839Z,2.60
2023-09-16T12:46:05.583Z,2.30
2023-09-16T12:48:33.925Z,2.58
2023-09-16T12:51:01.787Z,2.80
2023-09-16T12:53:29.447Z,2.13
2023-09-16T12:55:58.144Z,2.17
2023-09-16T12:58:25.127Z,2.65
2023-09-16T13:00:52.628Z,3.95
2023-09-16T13:03:24.930Z,3.33
2023-09-16T13:05:58.557Z,3.65
2023-09-16T13:08:26.417Z,3.03
2023-09-16T13:10:56.163Z,3.13
2023-09-16T13:13:26.389Z,3.22
2023-09-16T13:15:54.366Z,3.70
2023-09-16T13:18:21.395Z,3.45
2023-09-16T13:20:54.300Z,3.08
2023-09-16T13:23:28.362Z,3.75
2023-09-16T13:26:15.486Z,3.25
2023-09-16T13:28:57.631Z,3.17
2023-09-16T13:31:26.929Z,3.10
2023-09-16T13:34:01.243Z,3.22
2023-09-16T13:36:39.917Z,3.03
2023-09-16T13:39:08.558Z,3.03
2023-09-16T13:41:35.257Z,3.40
2023-09-16T13:44:02.203Z,3.30
2023-09-16T13:46:29.371Z,3.03
2023-09-16T13:48:56.586Z,2.70
2023-09-16T13:51:23.542Z,3.50
2023-09-16T13:53:51.942Z,3.25
2023-09-16T13:56:20.699Z,3.28
2023-09-16T13:58:47.937Z,3.10
2023-09-16T14:01:15.286Z,3.00
2023-09-16T14:03:42.147Z,3.05
2023-09-16T14:06:09.343Z,2.88
2023-09-16T14:08:36.313Z,2.80
2023-09-16T14:11:02.980Z,3.15
2023-09-16T14:13:29.829Z,3.38
2023-09-16T14:15:56.925Z,2.20
2023-09-16T14:18:24.117Z,3.08
2023-09-16T14:20:51.981Z,2.78
2023-09-16T14:23:19.909Z,2.35
2023-09-16T14:25:46.947Z,2.90
2023-09-16T14:28:13.935Z,2.47
2023-09-16T14:30:40.782Z,2.20
2023-09-16T14:33:07.720Z,2.38
2023-09-16T14:35:36.932Z,2.95
2023-09-16T14:38:04.979Z,3.00
2023-09-16T14:40:35.290Z,2.60
2023-09-16T14:43:03.204Z,2.85
2023-09-16T14:45:30.050Z,2.08
2023-09-16T14:47:56.855Z,2.47
2023-09-16T14:50:23.966Z,2.22
2023-09-16T14:52:52.103Z,2.80
2023-09-16T14:55:19.564Z,3.00
2023-09-16T14:57:46.829Z,2.53
2023-09-16T15:00:14.010Z,3.33
2023-09-16T15:02:41.173Z,1.98
2023-09-16T15:05:08.813Z,2.30
2023-09-16T15:07:36.067Z,2.53
2023-09-16T15:10:03.509Z,2.95
2023-09-16T15:12:30.588Z,2.65
2023-09-16T15:14:57.405Z,2.67
2023-09-16T15:17:26.720Z,2.17
2023-09-16T15:19:53.879Z,2.75
2023-09-16T15:22:21.488Z,2.53
2023-09-16T15:24:49.454Z,2.30
2023-09-16T15:27:16.409Z,2.38
2023-09-16T15:29:44.274Z,2.50
2023-09-16T15:37:09.622Z,2.60
2023-09-16T15:39:36.737Z,2.60
2023-09-16T15:42:03.863Z,2.10
2023-09-16T15:44:30.821Z,2.15
2023-09-16T15:46:58.748Z,1.95
2023-09-16T15:49:25.891Z,2.00
2023-09-16T15:51:52.574Z,2.22
2023-09-16T15:54:19.847Z,2.17
2023-09-16T15:56:46.615Z,1.70
2023-09-16T15:59:13.584Z,1.73
2023-09-16T16:01:41.525Z,1.92
2023-09-16T16:04:08.619Z,2.03
2023-09-16T16:06:35.556Z,2.20
2023-09-16T16:09:02.563Z,2.58
2023-09-16T16:11:29.346Z,2.47
2023-09-16T16:13:59.287Z,2.00
2023-09-16T16:18:53.955Z,2.60
2023-09-16T16:21:20.999Z,2.92
2023-09-16T16:23:48.146Z,2.63
2023-09-16T16:26:16.027Z,2.45
2023-09-16T16:28:42.808Z,2.75
2023-09-16T16:31:09.797Z,2.45
2023-09-16T16:33:36.563Z,2.95
2023-09-16T16:36:04.312Z,2.88
2023-09-16T16:38:31.353Z,2.45
2023-09-16T16:40:58.380Z,2.58
2023-09-16T16:43:25.167Z,2.83
2023-09-16T16:45:52.102Z,2.72
2023-09-16T16:48:19.062Z,2.80
2023-09-16T16:50:45.918Z,3.22
2023-09-16T16:53:13.226Z,2.60
2023-09-16T16:55:40.333Z,2.72
2023-09-16T16:58:07.576Z,3.33
2023-09-16T17:00:34.662Z,2.78
2023-09-16T17:03:01.531Z,3.03
2023-09-16T17:05:28.410Z,3.10
2023-09-16T17:07:58.228Z,2.97
2023-09-16T17:10:25.054Z,2.72
2023-09-16T17:12:51.977Z,3.22
2023-09-16T17:15:19.630Z,2.70
2023-09-16T17:17:46.980Z,2.90
2023-09-16T17:20:14.962Z,2.88
2023-09-16T17:22:41.797Z,2.88
2023-09-16T17:25:08.876Z,3.40
2023-09-16T17:27:36.383Z,3.05
2023-09-16T17:30:07.172Z,3.38
2023-09-16T17:32:34.576Z,3.00
2023-09-16T17:35:05.137Z,3.42
2023-09-16T17:37:33.582Z,3.17
2023-09-16T17:40:00.450Z,3.22
2023-09-16T17:42:27.941Z,3.10
2023-09-16T17:44:54.719Z,3.00
2023-09-16T17:47:21.378Z,3.53
2023-09-16T17:49:48.373Z,3.03
2023-09-16T17:52:15.224Z,3.50
2023-09-16T17:54:42.061Z,3.30
2023-09-16T17:57:08.804Z,3.22
2023-09-16T17:59:35.875Z,3.35
2023-09-16T18:02:02.622Z,3.65
2023-09-16T18:04:29.430Z,3.33
2023-09-16T18:06:56.147Z,3.25
2023-09-16T18:09:23.144Z,3.33
2023-09-16T18:11:50.678Z,3.80
2023-09-16T18:14:17.790Z,3.38
2023-09-16T18:16:44.695Z,3.63
2023-09-16T18:19:13.867Z,3.38
2023-09-16T18:21:40.786Z,4.22
2023-09-16T18:24:07.669Z,3.20
2023-09-16T18:26:34.452Z,3.58
2023-09-16T18:29:01.391Z,4.15
2023-09-16T18:31:28.296Z,3.42
2023-09-16T18:33:55.444Z,3.58
2023-09-16T18:36:22.874Z,3.30
2023-09-16T18:38:49.916Z,3.30
2023-09-16T18:41:18.185Z,4.20
2023-09-16T18:43:45.015Z,3.13
2023-09-16T18:46:12.523Z,3.00
2023-09-16T18:48:39.454Z,3.33
2023-09-16T18:51:08.215Z,3.97
2023-09-16T18:53:35.135Z,3.53
2023-09-16T18:56:02.085Z,3.85
2023-09-16T18:58:30.506Z,3.80
2023-09-16T19:00:57.416Z,3.03
2023-09-16T19:03:24.366Z,3.92
2023-09-16T19:05:51.621Z,4.00
2023-09-16T19:08:18.522Z,3.78
2023-09-16T19:10:47.098Z,4.30
2023-09-16T19:13:14.793Z,3.90
2023-09-16T19:15:41.660Z,4.82
2023-09-16T19:18:08.783Z,3.97
2023-09-16T19:20:37.196Z,3.92
2023-09-16T19:23:04.608Z,3.45
2023-09-16T19:25:31.485Z,4.55
2023-09-16T19:27:58.365Z,4.03
2023-09-16T19:30:25.372Z,3.58
2023-09-16T19:32:53.332Z,3.50
2023-09-16T19:35:21.308Z,3.65
2023-09-16T19:37:48.152Z,3.50
2023-09-16T19:40:15.954Z,4.28
2023-09-16T19:42:42.809Z,3.78
2023-09-16T19:45:10.086Z,3.97
2023-09-16T19:47:37.172Z,4.22
2023-09-16T19:50:05.811Z,4.43
2023-09-16T19:52:32.937Z,4.07
2023-09-16T19:54:59.718Z,4.05
2023-09-16T19:57:26.508Z,4.47
2023-09-16T19:59:53.281Z,4.78
2023-09-16T20:02:20.211Z,4.47
2023-09-16T20:04:48.441Z,4.35
2023-09-16T20:07:15.999Z,4.20
2023-09-16T20:09:42.786Z,3.63
2023-09-16T20:12:09.732Z,3.45
2023-09-16T20:14:36.951Z,3.97
2023-09-16T20:17:04.692Z,3.95
2023-09-16T20:19:32.142Z,5.15
2023-09-16T20:21:59.259Z,4.03
2023-09-16T20:24:26.118Z,4.30
2023-09-16T20:26:52.907Z,3.40
2023-09-16T20:29:19.866Z,4.00
2023-09-16T20:31:46.848Z,3.47
2023-09-16T20:34:14.002Z,3.13
2023-09-16T20:36:45.639Z,3.30
2023-09-16T20:39:12.910Z,3.35
2023-09-16T20:41:39.623Z,3.13
2023-09-16T20:44:06.590Z,3.90
2023-09-16T20:46:33.373Z,3.45
2023-09-16T20:49:00.212Z,3.75
2023-09-16T20:51:26.915Z,4.28
2023-09-16T20:53:53.815Z,3.70
2023-09-16T20:56:20.456Z,3.65
2023-09-16T20:58:47.265Z,4.78
2023-09-16T21:01:14.416Z,4.38
2023-09-16T21:03:42.045Z,4.35
2023-09-16T21:06:08.931Z,4.53
2023-09-16T21:08:35.752Z,3.95
2023-09-16T21:11:02.969Z,4.05
2023-09-16T21:13:30.389Z,3.78
2023-09-16T21:15:57.233Z,4.95
2023-09-16T21:18:24.222Z,4.13
2023-09-16T21:20:50.994Z,4.63
2023-09-16T21:23:17.762Z,3.67
2023-09-16T21:25:44.604Z,3.72
2023-09-16T21:28:11.462Z,3.33
2023-09-16T21:30:38.235Z,3.67
2023-09-16T21:33:05.308Z,3.83
2023-09-16T21:35:32.244Z,3.70
2023-09-16T21:37:58.980Z,3.13
2023-09-16T21:40:26.240Z,3.50
2023-09-16T21:42:53.956Z,3.60
2023-09-16T21:45:21.015Z,4.22
2023-09-16T21:47:47.992Z,4.05
2023-09-16T21:50:14.943Z,3.70
2023-09-16T21:53:00.354Z,3.15
2023-09-16T21:55:28.996Z,3.15
2023-09-16T21:57:55.814Z,3.40
2023-09-16T22:00:26.143Z,2.85
2023-09-16T22:05:20.800Z,2.72
2023-09-16T22:07:49.017Z,3.42
2023-09-16T22:10:16.033Z,3.25
2023-09-16T22:12:42.896Z,3.08
2023-09-16T22:15:12.188Z,3.17
2023-09-16T22:17:39.245Z,3.90
2023-09-16T22:20:10.641Z,3.10
2023-09-16T22:22:37.864Z,3.45
2023-09-16T22:25:08.345Z,2.95
2023-09-16T22:27:38.821Z,2.47
2023-09-16T22:32:33.610Z,2.88
2023-09-16T22:35:01.131Z,2.75
2023-09-16T22:37:28.208Z,2.95
2023-09-16T22:39:57.593Z,2.35
2023-09-16T22:42:25.531Z,2.97
2023-09-16T22:45:02.875Z,3.00
2023-09-16T22:47:33.952Z,3.42
2023-09-16T22:50:01.393Z,2.85
2023-09-16T22:52:30.361Z,3.13
2023-09-16T22:54:57.550Z,2.70
2023-09-16T22:57:24.362Z,2.90
2023-09-16T22:59:55.652Z,3.00
2023-09-16T23:02:25.814Z,3.05
2023-09-16T23:07:19.992Z,3.17
2023-09-16T23:09:46.836Z,2.72
2023-09-16T23:12:13.459Z,2.70
2023-09-16T23:14:40.310Z,2.80
2023-09-16T23:17:07.313Z,2.78
2023-09-16T23:19:34.322Z,2.30
2023-09-16T23:22:01.832Z,2.83
2023-09-16T23:24:28.827Z,3.30
2023-09-16T23:26:55.455Z,3.20
2023-09-16T23:29:22.358Z,2.47
2023-09-16T23:31:49.376Z,3.05
2023-09-16T23:34:16.269Z,2.60
2023-09-16T23:36:42.967Z,3.00
2023-09-16T23:39:09.739Z,3.65
2023-09-16T23:41:36.820Z,2.53
2023-09-16T23:44:05.120Z,2.60
2023-09-16T23:46:32.461Z,2.55
2023-09-16T23:48:59.318Z,2.50
2023-09-16T23:51:26.431Z,2.90
2023-09-16T23:53:53.320Z,2.75
2023-09-16T23:56:20.119Z,2.75
2023-09-16T23:58:46.870Z,2.80
